»·PEaware :: N454MD KSBA-KBUR

N454MD :: KSBA-KBUR

FLIGHT INFORMATION

Flight Status: Arrived
Operator: Privately registered:
United States
More flights under this callsign
Pilot: Richard H. (11485)
Aircraft: PIPER PA-28 CHEROKEE ARCHER
(P28A)
More flights by this aircraft type
Origin: KSBA Santa Barbara Mun
United States
Destination: KBUR Bob Hope-Burbank
United States
More flights between these airports :: More routes between these airports
Route: KWANG CMA CMA078 TOAKS
File this flight plan on PilotEdge
Remarks:
Altitude:
(Current/Filed)
7,000ft
Speed:
(Current/Filed)
110kts
Departed: 06-Oct-18 01:15 PM
Arrived: 06-Oct-18 01:55 PM
Distance/Time
Traveled:
75nm/0:40
Distance/Time
To Go:
Arrived

Flight Plot

Page will automatically refresh every two minutes.


Map Options




Map Legend


Flown Route
Filed Route
Departure Airport
Arrival Airport
Navaid (VOR, NDB)
Fix

Horizontal Profiles

Position Reports

Time Latitude Longitude Heading Altitude Ground
Speed
06-Oct-18 12:39 34.430268 -119.842732 243 13ft 0kts
06-Oct-18 12:40 34.430266 -119.842737 243 13ft 0kts
06-Oct-18 12:41 34.430265 -119.842740 243 13ft 0kts
06-Oct-18 12:42 34.430263 -119.842744 243 13ft 0kts
06-Oct-18 12:43 34.430262 -119.842747 243 13ft 0kts
06-Oct-18 12:44 34.430260 -119.842751 243 13ft 0kts
06-Oct-18 12:45 34.430259 -119.842755 243 13ft 0kts
06-Oct-18 12:46 34.430257 -119.842759 243 13ft 0kts
06-Oct-18 12:47 34.430256 -119.842763 243 13ft 0kts
06-Oct-18 12:48 34.430254 -119.842766 243 13ft 0kts
06-Oct-18 12:49 34.430252 -119.842770 243 13ft 0kts
06-Oct-18 12:50 34.430251 -119.842774 243 13ft 0kts
06-Oct-18 12:51 34.430249 -119.842778 243 13ft 0kts
06-Oct-18 12:52 34.430248 -119.842782 243 13ft 0kts
06-Oct-18 12:53 34.430246 -119.842786 243 13ft 0kts
06-Oct-18 12:54 34.430245 -119.842789 243 13ft 0kts
06-Oct-18 12:55 34.430243 -119.842793 243 13ft 0kts
06-Oct-18 12:56 34.430242 -119.842797 243 13ft 0kts
06-Oct-18 12:57 34.430240 -119.842801 243 13ft 0kts
06-Oct-18 12:58 34.430239 -119.842805 243 13ft 0kts
06-Oct-18 12:59 34.430237 -119.842808 243 13ft 0kts
06-Oct-18 13:00 34.430235 -119.842812 243 13ft 0kts
06-Oct-18 13:01 34.430234 -119.842816 243 13ft 0kts
06-Oct-18 13:02 34.430232 -119.842820 243 13ft 0kts
06-Oct-18 13:03 34.430231 -119.842823 243 13ft 0kts
06-Oct-18 13:04 34.430229 -119.842827 243 13ft 0kts
06-Oct-18 13:05 34.430228 -119.842831 243 13ft 0kts
06-Oct-18 13:06 34.430226 -119.842834 243 13ft 0kts
06-Oct-18 13:07 34.430225 -119.842838 243 13ft 0kts
06-Oct-18 13:08 34.430223 -119.842842 243 13ft 0kts
06-Oct-18 13:09 34.430222 -119.842846 243 13ft 0kts
06-Oct-18 13:10 34.430220 -119.842849 243 13ft 0kts
06-Oct-18 13:11 34.430219 -119.842853 243 13ft 0kts
06-Oct-18 13:12 34.430217 -119.842857 243 13ft 0kts
06-Oct-18 13:13 34.430216 -119.842860 243 13ft 0kts
06-Oct-18 13:14 34.429967 -119.842965 139 13ft 4kts
06-Oct-18 13:15 34.429920 -119.842063 64 13ft 0kts
06-Oct-18 13:16 34.429921 -119.842060 64 13ft 0kts
06-Oct-18 13:17 34.426935 -119.840455 167 18ft 68kts
06-Oct-18 13:18 34.403028 -119.833015 166 979ft 88kts
06-Oct-18 13:19 34.378872 -119.823982 165 2000ft 93kts
06-Oct-18 13:20 34.351415 -119.813405 165 2840ft 113kts
06-Oct-18 13:21 34.320438 -119.802186 165 3744ft 118kts
06-Oct-18 13:22 34.288494 -119.790580 165 4622ft 121kts
06-Oct-18 13:23 34.264735 -119.764125 86 5083ft 131kts
06-Oct-18 13:24 34.261919 -119.720368 85 5003ft 127kts
06-Oct-18 13:25 34.258492 -119.676148 86 5029ft 134kts
06-Oct-18 13:26 34.255076 -119.631035 86 5035ft 134kts
06-Oct-18 13:27 34.251608 -119.585881 87 5039ft 135kts
06-Oct-18 13:28 34.248477 -119.540899 86 5041ft 134kts
06-Oct-18 13:29 34.246128 -119.498788 85 5009ft 136kts
06-Oct-18 13:30 34.244198 -119.456475 86 4996ft 134kts
06-Oct-18 13:31 34.241612 -119.413746 86 4996ft 134kts
06-Oct-18 13:32 34.238906 -119.369843 86 4995ft 134kts
06-Oct-18 13:33 34.236507 -119.324977 86 4994ft 133kts
06-Oct-18 13:34 34.234150 -119.280158 86 4993ft 133kts
06-Oct-18 13:35 34.232230 -119.237361 86 5001ft 135kts
06-Oct-18 13:36 34.230430 -119.190954 87 5019ft 140kts
06-Oct-18 13:37 34.227632 -119.145732 88 4991ft 132kts
06-Oct-18 13:38 34.224782 -119.100673 88 5014ft 137kts
06-Oct-18 13:39 34.222084 -119.055369 89 5006ft 133kts
06-Oct-18 13:40 34.219680 -119.010079 88 5018ft 137kts
06-Oct-18 13:41 34.217453 -118.963903 88 5022ft 138kts
06-Oct-18 13:42 34.213841 -118.918503 91 4998ft 133kts
06-Oct-18 13:43 34.209972 -118.873902 91 4996ft 134kts
06-Oct-18 13:44 34.206304 -118.828587 91 5009ft 137kts
06-Oct-18 13:45 34.202916 -118.783537 91 4987ft 132kts
06-Oct-18 13:46 34.201057 -118.740440 86 4840ft 130kts
06-Oct-18 13:47 34.201304 -118.698733 87 4337ft 129kts
06-Oct-18 13:48 34.201546 -118.655598 87 3841ft 127kts
06-Oct-18 13:49 34.202367 -118.613030 87 3759ft 122kts
06-Oct-18 13:50 34.201986 -118.574885 97 3473ft 126kts
06-Oct-18 13:51 34.199512 -118.533297 90 3032ft 112kts
06-Oct-18 13:52 34.199492 -118.499245 90 2869ft 98kts
06-Oct-18 13:53 34.199222 -118.466073 93 2503ft 100kts
06-Oct-18 13:54 34.198970 -118.434510 95 1894ft 82kts
06-Oct-18 13:55 34.198482 -118.407591 95 1323ft 78kts
06-Oct-18 13:56 34.198191 -118.379669 97 965ft 84kts
06-Oct-18 13:57 34.197799 -118.362546 83 724ft 10kts
06-Oct-18 13:58 34.198526 -118.360274 1 724ft 0kts
06-Oct-18 13:59 34.198530 -118.360274 1 724ft 0kts
06-Oct-18 14:00 34.199998 -118.359797 69 724ft 0kts

Navigation Log

Ident Type
Flight plan parsing failed, navigation log unavailable